Time;durP1;ratioP1;P1;durP2;ratioP2;P2;SDS_P1;SDS_P2;PMS_P1;PMS_P2;Temp;Humidity;BMP_temperature;BMP_pressure;BME280_temperature;BME280_humidity;BME280_pressure;Samples;Min_cycle;Max_cycle;Signal;HPM_P1;HPM_P2
2022/10/02 00:02:29;;;;;;;;;5.25;3.25;;;;;18.57;53.23;101300.25;5077966;27;45498;-40
2022/10/02 00:04:59;;;;;;;;;6.50;4.00;;;;;18.56;52.90;101290.56;5072695;27;45364;-40
2022/10/02 00:07:35;;;;;;;;;3.75;2.25;;;;;18.55;53.37;101294.16;5069316;27;46298;-41
2022/10/02 00:10:10;;;;;;;;;6.00;3.75;;;;;18.54;53.71;101292.44;5064975;28;45687;-40
2022/10/02 00:12:35;;;;;;;;;5.00;4.00;;;;;18.53;53.91;101295.19;5074104;28;45467;-40
2022/10/02 00:15:15;;;;;;;;;3.00;2.75;;;;;18.52;54.13;101296.09;5074052;27;45527;-40
2022/10/02 00:17:43;;;;;;;;;0.25;0.25;;;;;18.53;54.08;101303.13;5061552;27;47309;-40
2022/10/02 00:20:18;;;;;;;;;3.25;3.00;;;;;18.51;54.31;101311.16;5076493;27;45397;-40
2022/10/02 00:23:07;;;;;;;;;8.75;4.00;;;;;18.51;54.54;101302.34;5077841;27;45340;-42
2022/10/02 00:25:34;;;;;;;;;6.00;4.00;;;;;18.51;54.69;101308.50;5080145;27;45469;-40
2022/10/02 00:28:09;;;;;;;;;7.00;5.00;;;;;18.49;54.78;101304.22;5070138;27;46164;-40
2022/10/02 00:30:44;;;;;;;;;5.00;3.00;;;;;18.48;54.90;101308.66;5063943;27;45440;-41
2022/10/02 00:33:20;;;;;;;;;2.75;2.75;;;;;18.49;55.03;101315.69;5069880;27;45237;-40
2022/10/02 00:36:05;;;;;;;;;5.00;4.50;;;;;18.50;54.80;101305.94;5075508;27;45698;-40
2022/10/02 00:38:42;;;;;;;;;4.50;2.75;;;;;18.50;55.33;101303.28;5077091;27;47376;-44
2022/10/02 00:41:29;;;;;;;;;5.50;4.00;;;;;18.49;55.48;101305.06;5085170;27;45594;-41
2022/10/02 00:44:27;;;;;;;;;5.00;2.00;;;;;18.51;55.80;101307.66;5069996;27;45507;-40
2022/10/02 00:47:08;;;;;;;;;4.75;3.00;;;;;18.50;55.45;101308.56;5088150;27;45453;-40
2022/10/02 00:49:57;;;;;;;;;5.50;3.00;;;;;18.50;55.82;101314.75;5054838;27;47831;-40
2022/10/02 00:52:29;;;;;;;;;3.75;1.75;;;;;18.50;55.85;101314.75;5095395;27;45355;-40
2022/10/02 00:54:57;;;;;;;;;4.25;3.50;;;;;18.52;55.88;101312.88;5092894;27;45399;-41
2022/10/02 00:57:30;;;;;;;;;5.00;2.25;;;;;18.51;56.28;101319.09;5091165;27;45389;-43
2022/10/02 01:00:12;;;;;;;;;3.50;3.25;;;;;18.54;56.14;101315.47;5085774;27;46253;-40
2022/10/02 01:03:02;;;;;;;;;3.50;2.75;;;;;18.55;56.14;101322.47;5062388;27;45336;-40
2022/10/02 01:05:27;;;;;;;;;4.75;2.00;;;;;18.54;56.40;101324.25;5092099;27;45919;-40
2022/10/02 01:07:54;;;;;;;;;4.00;3.00;;;;;18.52;56.41;101323.47;5085795;27;45491;-41
2022/10/02 01:10:21;;;;;;;;;3.75;2.00;;;;;18.53;56.03;101326.97;5076385;27;46339;-40
2022/10/02 01:12:50;;;;;;;;;5.25;2.00;;;;;18.50;56.76;101321.81;5098101;27;45339;-42
2022/10/02 01:15:18;;;;;;;;;5.25;3.75;;;;;18.49;56.76;101322.78;5092941;27;45502;-40
2022/10/02 01:17:44;;;;;;;;;4.25;2.75;;;;;18.48;56.98;101315.75;5086033;27;45177;-41
2022/10/02 01:20:16;;;;;;;;;3.00;3.00;;;;;18.47;57.40;101316.69;5092388;27;46320;-41
2022/10/02 01:22:56;;;;;;;;;2.50;2.00;;;;;18.45;57.65;101306.19;5074276;27;45770;-40
2022/10/02 01:25:21;;;;;;;;;2.25;2.00;;;;;18.41;58.02;101301.94;5080693;27;45374;-42
2022/10/02 01:27:47;;;;;;;;;3.50;2.00;;;;;18.38;59.10;101316.22;5082916;27;60754;-40
2022/10/02 01:30:16;;;;;;;;;4.00;2.00;;;;;18.34;58.44;101319.09;5068571;27;46108;-43
2022/10/02 01:32:55;;;;;;;;;2.00;1.25;;;;;18.30;59.09;101314.91;5080456;27;45217;-42
2022/10/02 01:35:23;;;;;;;;;3.00;3.00;;;;;18.27;59.51;101317.69;5057746;27;45456;-40
2022/10/02 01:37:50;;;;;;;;;5.00;3.00;;;;;18.21;59.98;101314.41;5076096;27;45601;-40
2022/10/02 01:40:30;;;;;;;;;4.00;2.50;;;;;18.20;59.91;101314.47;5086996;27;46225;-42
2022/10/02 01:43:00;;;;;;;;;4.00;2.00;;;;;18.16;60.39;101308.47;5094174;27;45481;-41
2022/10/02 01:45:52;;;;;;;;;3.00;2.00;;;;;18.16;60.61;101307.63;5087379;27;45374;-41
2022/10/02 01:48:25;;;;;;;;;3.00;2.00;;;;;18.14;60.88;101309.50;5072810;27;47354;-41
2022/10/02 01:51:13;;;;;;;;;2.00;2.00;;;;;18.13;61.10;101302.47;5082173;27;46166;-40
2022/10/02 01:53:49;;;;;;;;;5.00;2.25;;;;;18.13;60.61;101299.81;5044962;27;45442;-40
2022/10/02 01:56:24;;;;;;;;;2.00;2.00;;;;;18.11;61.37;101301.69;5100982;27;45297;-40
2022/10/02 01:59:08;;;;;;;;;3.00;2.00;;;;;18.08;61.47;101292.13;5084593;27;45314;-42
2022/10/02 02:01:43;;;;;;;;;4.00;3.00;;;;;18.13;61.42;101294.53;5090175;27;45280;-41
2022/10/02 02:04:28;;;;;;;;;3.00;2.00;;;;;18.13;61.50;101294.53;5062938;27;45761;-42
2022/10/02 02:07:04;;;;;;;;;4.50;3.00;;;;;18.14;61.68;101294.47;5084146;27;45467;-41
2022/10/02 02:09:35;;;;;;;;;2.25;2.25;;;;;18.14;61.97;101297.09;5067674;27;45387;-41
2022/10/02 02:12:08;;;;;;;;;4.00;3.00;;;;;18.15;61.83;101296.19;5088206;27;46117;-40
2022/10/02 02:14:39;;;;;;;;;2.00;2.00;;;;;18.16;61.70;101294.38;5096092;27;45601;-41
2022/10/02 02:17:10;;;;;;;;;3.25;3.00;;;;;18.17;61.82;101288.16;5086608;27;45557;-40
2022/10/02 02:19:45;;;;;;;;;4.00;3.00;;;;;18.16;62.21;101281.13;5092507;27;45235;-40
2022/10/02 02:22:18;;;;;;;;;2.25;2.00;;;;;18.17;62.13;101275.78;5068643;27;45393;-40
2022/10/02 02:24:48;;;;;;;;;3.75;2.00;;;;;18.17;62.23;101272.28;5075951;27;45814;-41
2022/10/02 02:27:18;;;;;;;;;3.75;2.00;;;;;18.16;62.42;101276.69;5061675;27;45340;-41
2022/10/02 02:29:46;;;;;;;;;3.00;2.00;;;;;18.16;62.05;101284.63;5063118;27;45278;-41
2022/10/02 02:32:14;;;;;;;;;3.25;2.00;;;;;18.15;62.41;101282.06;5082832;27;46159;-39
2022/10/02 02:34:44;;;;;;;;;1.50;1.50;;;;;18.11;62.54;101275.22;5066322;27;45939;-40
2022/10/02 02:37:15;;;;;;;;;3.00;1.00;;;;;18.12;62.81;101272.50;5079223;27;46729;-41
2022/10/02 02:39:55;;;;;;;;;4.00;2.00;;;;;18.09;63.13;101270.00;5076203;27;45554;-40
2022/10/02 02:42:23;;;;;;;;;3.75;1.00;;;;;18.07;63.38;101261.25;5078175;28;46316;-40
2022/10/02 02:45:00;;;;;;;;;1.50;1.00;;;;;18.09;63.43;101264.69;5068665;27;45798;-40
2022/10/02 02:47:37;;;;;;;;;4.00;2.00;;;;;18.09;63.49;101261.19;5086677;27;45313;-43
2022/10/02 02:50:04;;;;;;;;;1.25;1.00;;;;;18.10;63.50;101262.91;5080876;27;45216;-40
2022/10/02 02:52:34;;;;;;;;;2.50;2.00;;;;;18.12;63.64;101261.03;5064875;28;46324;-40
2022/10/02 02:55:18;;;;;;;;;1.25;1.25;;;;;18.13;63.85;101253.03;5055107;27;46456;-40
2022/10/02 02:57:54;;;;;;;;;2.00;2.00;;;;;18.14;63.95;101253.88;5086636;27;45281;-40
2022/10/02 03:00:21;;;;;;;;;4.75;1.75;;;;;18.14;63.70;101252.06;5071619;27;45443;-40
2022/10/02 03:02:49;;;;;;;;;2.50;1.50;;;;;18.13;64.14;101245.09;5074703;27;46942;-40
2022/10/02 03:05:16;;;;;;;;;3.75;2.00;;;;;18.08;64.08;101238.28;5074957;27;45352;-43
2022/10/02 03:07:49;;;;;;;;;3.50;2.50;;;;;18.14;64.01;101248.56;5097599;27;45415;-40
2022/10/02 03:10:23;;;;;;;;;4.00;2.00;;;;;18.14;64.15;101237.97;5064278;27;45433;-42
2022/10/02 03:12:54;;;;;;;;;3.00;2.00;;;;;18.15;64.42;101240.56;5107690;27;45444;-41
2022/10/02 03:15:25;;;;;;;;;2.00;2.00;;;;;18.10;64.33;101239.94;5093041;27;45366;-43
2022/10/02 03:18:08;;;;;;;;;4.75;3.00;;;;;18.16;64.24;101244.91;5085505;27;45433;-40
2022/10/02 03:20:45;;;;;;;;;6.25;3.50;;;;;18.17;64.25;101236.03;5086748;27;45237;-40
2022/10/02 03:23:29;;;;;;;;;5.25;3.00;;;;;18.19;64.75;101244.75;5090905;27;46337;-41
2022/10/02 03:26:15;;;;;;;;;3.50;3.00;;;;;18.21;64.71;101240.22;5072328;27;45737;-40
2022/10/02 03:28:52;;;;;;;;;4.00;2.00;;;;;18.23;64.48;101231.38;5089306;27;45516;-41
2022/10/02 03:31:19;;;;;;;;;7.75;4.00;;;;;18.24;64.21;101230.41;5066200;27;45487;-41
2022/10/02 03:33:46;;;;;;;;;4.75;3.00;;;;;18.24;64.65;101227.75;5073488;27;65831;-41
2022/10/02 03:36:13;;;;;;;;;3.50;3.00;;;;;18.23;64.82;101229.56;5079060;27;45281;-44
2022/10/02 03:38:39;;;;;;;;;5.25;3.00;;;;;18.25;64.43;101222.38;5057141;27;45267;-41
2022/10/02 03:41:05;;;;;;;;;4.25;3.50;;;;;18.26;64.77;101224.13;5075068;27;53202;-43
2022/10/02 03:43:30;;;;;;;;;5.25;5.00;;;;;18.27;64.84;101227.59;5091632;27;45303;-42
2022/10/02 03:45:56;;;;;;;;;3.75;3.75;;;;;18.27;64.82;101231.09;5084733;27;47160;-43
2022/10/02 03:48:21;;;;;;;;;3.75;3.00;;;;;18.27;64.56;101225.81;5083710;27;66709;-39
2022/10/02 03:50:49;;;;;;;;;4.00;2.50;;;;;18.26;64.66;101226.75;5091480;27;45737;-39
2022/10/02 03:53:20;;;;;;;;;1.00;1.00;;;;;18.26;64.83;101224.13;5091792;27;46086;-40
2022/10/02 03:56:13;;;;;;;;;3.00;2.25;;;;;18.25;65.03;101227.69;5088552;27;45640;-41
2022/10/02 03:58:43;;;;;;;;;1.75;1.50;;;;;18.28;65.09;101224.03;5085936;27;45415;-40
2022/10/02 04:01:17;;;;;;;;;5.50;1.25;;;;;18.29;65.05;101229.25;5074340;27;45668;-40
2022/10/02 04:03:48;;;;;;;;;3.00;2.00;;;;;18.29;65.23;101223.09;5078577;27;46154;-42
2022/10/02 04:06:21;;;;;;;;;1.00;1.00;;;;;18.32;65.32;101222.94;5077666;27;45242;-40
2022/10/02 04:09:02;;;;;;;;;0.00;0.00;;;;;18.34;65.11;101223.72;5076434;28;45359;-42
2022/10/02 04:11:35;;;;;;;;;0.50;0.00;;;;;18.33;65.14;101220.22;5067194;28;45443;-43
2022/10/02 04:14:06;;;;;;;;;2.50;1.25;;;;;18.34;65.11;101221.94;5085204;27;47310;-42
2022/10/02 04:16:39;;;;;;;;;1.00;1.00;;;;;18.35;65.20;101228.09;5075428;27;45657;-42
2022/10/02 04:19:24;;;;;;;;;2.00;1.00;;;;;18.36;65.01;101228.00;5062911;27;45344;-42
2022/10/02 04:22:15;;;;;;;;;1.00;1.00;;;;;18.36;65.15;101225.34;5087995;27;45315;-42
2022/10/02 04:24:46;;;;;;;;;1.75;1.75;;;;;18.39;65.15;101224.31;5047413;27;45564;-45
2022/10/02 04:27:21;;;;;;;;;1.25;1.00;;;;;18.41;65.04;101225.09;5080267;27;45331;-42
2022/10/02 04:29:55;;;;;;;;;1.00;0.00;;;;;18.41;64.95;101225.09;5096154;27;45434;-45
2022/10/02 04:32:25;;;;;;;;;0.50;0.50;;;;;18.37;64.87;101208.50;5078231;27;45472;-40
2022/10/02 04:34:51;;;;;;;;;0.00;0.00;;;;;18.37;65.56;101213.81;5045577;28;46306;-40
2022/10/02 04:37:38;;;;;;;;;0.00;0.00;;;;;18.38;65.05;101225.28;5041582;28;45478;-40
2022/10/02 04:40:16;;;;;;;;;0.00;0.00;;;;;18.38;65.08;101226.13;5040246;28;45371;-41
2022/10/02 04:43:01;;;;;;;;;0.00;0.00;;;;;18.34;65.50;101235.19;5036414;28;46399;-41
2022/10/02 04:46:07;;;;;;;;;0.00;0.00;;;;;18.34;65.50;101234.31;5050057;28;47831;-40
2022/10/02 04:48:35;;;;;;;;;0.00;0.00;;;;;18.33;65.67;101236.09;5041993;28;45229;-41
2022/10/02 04:51:09;;;;;;;;;0.25;0.00;;;;;18.33;65.60;101233.47;5053543;28;45398;-40
2022/10/02 04:54:22;;;;;;;;;0.00;0.00;;;;;18.34;65.58;101232.53;5044542;28;45481;-40
2022/10/02 04:57:06;;;;;;;;;0.00;0.00;;;;;18.35;65.44;101236.03;5014660;28;45274;-41
2022/10/02 04:59:44;;;;;;;;;0.00;0.00;;;;;18.34;65.34;101232.53;5049447;28;45434;-40
2022/10/02 05:02:30;;;;;;;;;0.00;0.00;;;;;18.35;65.54;101231.59;5044957;28;45304;-44
2022/10/02 05:05:08;;;;;;;;;0.00;0.00;;;;;18.36;65.40;101238.59;5055299;28;45731;-41
2022/10/02 05:07:58;;;;;;;;;0.00;0.00;;;;;18.36;65.80;101232.44;5044296;28;46264;-42
2022/10/02 05:10:47;;;;;;;;;0.00;0.00;;;;;18.38;65.78;101236.72;5050411;28;45679;-42
2022/10/02 05:13:31;;;;;;;;;0.00;0.00;;;;;18.39;65.81;101246.38;5055366;28;45237;-41
2022/10/02 05:16:25;;;;;;;;;0.50;0.00;;;;;18.40;65.71;101242.81;5046852;28;45460;-41
2022/10/02 05:19:09;;;;;;;;;0.00;0.00;;;;;18.42;65.60;101242.72;5054069;28;45386;-40
2022/10/02 05:21:40;;;;;;;;;0.00;0.00;;;;;18.44;65.57;101242.66;5050832;28;45609;-43
2022/10/02 05:24:42;;;;;;;;;0.00;0.00;;;;;18.42;65.16;101248.03;5052589;28;45352;-41
2022/10/02 05:27:14;;;;;;;;;0.00;0.00;;;;;18.42;65.36;101241.88;5053244;28;45332;-41
2022/10/02 05:30:14;;;;;;;;;0.00;0.00;;;;;18.42;65.53;101239.22;5050976;28;46451;-40
2022/10/02 05:32:57;;;;;;;;;0.00;0.00;;;;;18.42;65.42;101240.06;5056628;28;45507;-41
2022/10/02 05:35:52;;;;;;;;;0.00;0.00;;;;;18.44;65.27;101246.16;5089968;27;45311;-41
2022/10/02 05:38:21;;;;;;;;;2.00;0.75;;;;;18.44;65.05;101240.00;5065347;28;45312;-43
2022/10/02 05:40:49;;;;;;;;;2.50;0.00;;;;;18.43;65.28;101238.28;5094535;27;45419;-43
2022/10/02 05:43:29;;;;;;;;;0.00;0.00;;;;;18.41;64.96;101251.59;5089911;27;45672;-40
2022/10/02 05:45:58;;;;;;;;;0.00;0.00;;;;;18.40;65.22;101249.91;5073390;27;45718;-41
2022/10/02 05:48:51;;;;;;;;;1.00;0.00;;;;;18.39;65.19;101253.47;5072356;27;45528;-40
2022/10/02 05:51:35;;;;;;;;;0.00;0.00;;;;;18.37;65.22;101253.56;5077245;27;46370;-40
2022/10/02 05:54:23;;;;;;;;;0.25;0.00;;;;;18.36;65.28;101264.22;5075450;27;45733;-40
2022/10/02 05:57:05;;;;;;;;;0.00;0.00;;;;;18.34;65.32;101266.97;5069415;27;45286;-41
2022/10/02 05:59:44;;;;;;;;;0.00;0.00;;;;;18.33;65.38;101275.84;5067608;28;45406;-41
2022/10/02 06:02:35;;;;;;;;;0.00;0.00;;;;;18.33;64.85;101275.00;5079460;27;45488;-40
2022/10/02 06:05:21;;;;;;;;;0.00;0.00;;;;;18.31;65.26;101275.09;5069946;27;45712;-40
2022/10/02 06:07:51;;;;;;;;;0.75;0.00;;;;;18.29;65.33;101278.72;5078851;27;45270;-40
2022/10/02 06:10:21;;;;;;;;;0.00;0.00;;;;;18.29;65.33;101278.72;5070033;27;45474;-40
2022/10/02 06:12:53;;;;;;;;;0.75;0.00;;;;;18.29;65.18;101274.31;5080799;27;46314;-39
2022/10/02 06:15:21;;;;;;;;;0.00;0.00;;;;;18.28;65.26;101275.22;5074565;27;45485;-40
2022/10/02 06:17:58;;;;;;;;;0.00;0.00;;;;;18.29;65.13;101270.78;5095018;27;45410;-40
2022/10/02 06:20:35;;;;;;;;;1.50;0.00;;;;;18.31;65.15;101274.19;5095105;27;45363;-42
2022/10/02 06:23:06;;;;;;;;;0.25;0.00;;;;;18.31;65.38;101279.50;5076941;27;46066;-40
2022/10/02 06:25:40;;;;;;;;;0.00;0.00;;;;;18.31;65.29;101277.72;5068115;27;45704;-40
2022/10/02 06:28:14;;;;;;;;;0.00;0.00;;;;;18.31;65.23;101277.72;5087132;27;45382;-40
2022/10/02 06:30:45;;;;;;;;;0.00;0.00;;;;;18.33;65.33;101269.72;5100051;27;45320;-41
2022/10/02 06:33:15;;;;;;;;;0.00;0.00;;;;;18.36;65.25;101280.13;5093831;27;45229;-41
2022/10/02 06:36:03;;;;;;;;;0.00;0.00;;;;;18.36;65.39;101275.72;5081089;27;45592;-40
2022/10/02 06:38:50;;;;;;;;;0.00;0.00;;;;;18.37;65.15;101274.75;5081360;27;45446;-41
2022/10/02 06:41:27;;;;;;;;;0.00;0.00;;;;;18.39;65.23;101274.69;5091279;27;45541;-40
2022/10/02 06:44:12;;;;;;;;;0.00;0.00;;;;;18.39;64.98;101280.81;5087443;27;46212;-40
2022/10/02 06:46:43;;;;;;;;;0.00;0.00;;;;;18.40;65.09;101279.06;5078074;28;45396;-43
2022/10/02 06:49:27;;;;;;;;;1.00;0.00;;;;;18.41;65.36;101283.41;5090604;27;45248;-42
2022/10/02 06:52:54;;;;;;;;;0.00;0.00;;;;;18.43;65.26;101278.03;5085773;27;45430;-40
2022/10/02 06:55:43;;;;;;;;;1.75;0.00;;;;;18.46;65.23;101280.53;4985411;28;45326;-40
2022/10/02 06:58:37;;;;;;;;;0.50;0.00;;;;;18.48;65.12;101282.16;5096443;27;45657;-40
2022/10/02 07:01:03;;;;;;;;;0.50;0.50;;;;;18.50;65.02;101282.06;5072926;27;45600;-39
2022/10/02 07:03:40;;;;;;;;;0.00;0.00;;;;;18.53;64.91;101279.28;5086339;27;45314;-39
2022/10/02 07:06:11;;;;;;;;;0.00;0.00;;;;;18.53;65.14;101280.13;5083274;27;45292;-41
2022/10/02 07:09:02;;;;;;;;;0.00;0.00;;;;;18.55;65.21;101282.69;5095531;27;45426;-43
2022/10/02 07:11:49;;;;;;;;;0.75;0.00;;;;;18.55;65.03;101282.69;5078048;27;45480;-43
2022/10/02 07:14:26;;;;;;;;;0.00;0.00;;;;;18.55;65.14;101282.69;5090589;27;45593;-41
2022/10/02 07:16:52;;;;;;;;;2.00;0.00;;;;;18.55;65.06;101283.53;5094776;27;47139;-42
2022/10/02 07:19:34;;;;;;;;;0.00;0.00;;;;;18.57;65.03;101275.50;5096737;27;45338;-42
2022/10/02 07:22:22;;;;;;;;;1.00;0.00;;;;;18.59;65.10;101271.88;5079280;27;45303;-44
2022/10/02 07:25:00;;;;;;;;;0.00;0.00;;;;;18.64;65.30;101286.66;5051965;27;45264;-42
2022/10/02 07:27:30;;;;;;;;;1.00;0.00;;;;;18.63;64.81;101269.91;5097478;27;46278;-44
2022/10/02 07:30:10;;;;;;;;;0.25;0.00;;;;;18.65;64.89;101278.63;5092991;27;45461;-44
2022/10/02 07:32:46;;;;;;;;;0.00;0.00;;;;;18.69;64.85;101279.34;5079777;27;45485;-42
2022/10/02 07:35:36;;;;;;;;;0.00;0.00;;;;;18.71;64.69;101282.75;5060178;27;45481;-43
2022/10/02 07:38:10;;;;;;;;;0.00;0.00;;;;;18.77;64.81;101301.84;5064137;27;46310;-42
2022/10/02 07:40:54;;;;;;;;;0.00;0.00;;;;;18.79;64.83;101292.03;5098315;27;45688;-43
2022/10/02 07:43:32;;;;;;;;;0.00;0.00;;;;;18.81;64.32;101288.44;5086013;27;45426;-44
2022/10/02 07:46:21;;;;;;;;;0.75;0.00;;;;;18.82;64.27;101292.81;5085443;27;45588;-44
2022/10/02 07:48:49;;;;;;;;;1.25;1.25;;;;;18.79;64.51;101285.88;5075237;27;45503;-42
2022/10/02 07:51:48;;;;;;;;;6.25;5.50;;;;;18.84;64.08;101283.00;5085834;27;45706;-42
2022/10/02 07:54:33;;;;;;;;;3.75;3.00;;;;;18.86;64.03;101295.25;5074454;27;45529;-42
2022/10/02 07:57:10;;;;;;;;;2.00;2.00;;;;;18.89;63.99;101294.22;5084970;27;45510;-43
2022/10/02 07:59:38;;;;;;;;;4.00;2.25;;;;;18.90;63.92;101298.59;5067958;27;46342;-46
2022/10/02 08:02:07;;;;;;;;;4.00;3.25;;;;;18.91;63.85;101314.44;5074178;27;69209;-43
2022/10/02 08:04:34;;;;;;;;;6.25;3.25;;;;;18.93;63.66;101311.69;5103166;27;45282;-43
2022/10/02 08:07:01;;;;;;;;;2.50;0.00;;;;;18.96;63.74;101317.69;5102439;27;45494;-42
2022/10/02 08:09:31;;;;;;;;;0.00;0.00;;;;;18.98;63.53;101314.94;5081951;27;46815;-42
2022/10/02 08:12:02;;;;;;;;;0.25;0.00;;;;;19.01;63.41;101322.75;5070643;27;45707;-41
2022/10/02 08:14:38;;;;;;;;;1.50;0.00;;;;;19.00;63.30;101314.88;5081288;27;45324;-41
2022/10/02 08:17:27;;;;;;;;;0.50;0.00;;;;;19.02;63.25;101315.66;5099537;27;45642;-42
2022/10/02 08:20:01;;;;;;;;;3.50;1.00;;;;;19.05;63.20;101319.00;5080952;27;47053;-44
2022/10/02 08:22:40;;;;;;;;;1.50;0.00;;;;;19.11;63.19;101323.13;5080926;28;45644;-44
2022/10/02 08:25:18;;;;;;;;;0.50;0.00;;;;;19.14;63.18;101323.81;5080468;27;45457;-46
2022/10/02 08:28:18;;;;;;;;;0.50;0.50;;;;;19.19;62.89;101328.00;5102608;27;45437;-43
2022/10/02 08:30:43;;;;;;;;;1.00;1.00;;;;;19.21;62.84;101334.09;5079806;28;46216;-46
2022/10/02 08:33:17;;;;;;;;;5.25;1.00;;;;;19.23;62.87;101338.38;5085786;27;66645;-42
2022/10/02 08:36:09;;;;;;;;;1.00;0.75;;;;;19.25;62.78;101319.75;5102289;27;45584;-47
2022/10/02 08:38:39;;;;;;;;;1.25;0.00;;;;;19.26;62.26;101321.44;5102295;27;45240;-42
2022/10/02 08:41:32;;;;;;;;;1.50;1.00;;;;;19.31;62.42;101328.19;5081919;27;46550;-42
2022/10/02 08:44:30;;;;;;;;;0.25;0.25;;;;;19.39;62.38;101337.53;5102400;27;45642;-44
2022/10/02 08:47:22;;;;;;;;;2.25;1.00;;;;;19.46;61.94;101331.84;5080314;28;45327;-42
2022/10/02 08:50:05;;;;;;;;;1.25;1.00;;;;;19.54;62.15;101328.75;5094997;27;45474;-41
2022/10/02 08:53:07;;;;;;;;;3.50;1.00;;;;;19.64;61.78;101335.25;5102061;27;45313;-44
2022/10/02 08:56:04;;;;;;;;;1.75;0.25;;;;;19.71;61.45;101331.31;5097708;27;45425;-42
2022/10/02 08:59:07;;;;;;;;;2.75;1.00;;;;;19.80;61.53;101331.78;5083826;27;45390;-42
2022/10/02 09:02:01;;;;;;;;;1.00;1.00;;;;;19.86;61.24;101334.09;5083552;27;45333;-43
2022/10/02 09:04:48;;;;;;;;;2.75;1.00;;;;;19.90;61.15;101336.50;5102238;27;45303;-42
2022/10/02 09:07:38;;;;;;;;;2.00;1.50;;;;;19.93;61.36;101340.75;5092051;27;45401;-42
2022/10/02 09:10:25;;;;;;;;;1.00;1.00;;;;;19.95;61.12;101349.50;5101191;27;45490;-41
2022/10/02 09:13:21;;;;;;;;;0.50;0.50;;;;;19.95;60.90;101332.72;5102013;27;45423;-44
2022/10/02 09:15:52;;;;;;;;;4.25;1.25;;;;;19.98;61.13;101332.53;5101821;27;46539;-42
2022/10/02 09:18:33;;;;;;;;;2.00;1.00;;;;;20.00;60.80;101334.16;5083200;27;45422;-43
2022/10/02 09:21:04;;;;;;;;;2.00;2.00;;;;;19.98;60.83;101325.41;5101913;27;45228;-43
2022/10/02 09:24:06;;;;;;;;;1.00;1.00;;;;;19.98;61.15;101322.75;5098697;27;45514;-44
2022/10/02 09:27:10;;;;;;;;;2.00;1.00;;;;;20.03;61.06;101318.03;5101288;27;45470;-44
2022/10/02 09:29:44;;;;;;;;;2.00;1.00;;;;;20.06;60.91;101314.34;5101408;27;45249;-42
2022/10/02 09:32:33;;;;;;;;;3.00;2.00;;;;;20.12;60.54;101316.66;5101422;27;45205;-45
2022/10/02 09:35:01;;;;;;;;;2.50;1.00;;;;;20.18;60.86;101318.94;5100353;27;45542;-44
2022/10/02 09:38:04;;;;;;;;;1.00;1.00;;;;;20.21;60.50;101321.44;5101114;27;46328;-45
2022/10/02 09:40:53;;;;;;;;;1.00;1.00;;;;;20.22;60.37;101317.84;5092504;27;45252;-43
2022/10/02 09:43:50;;;;;;;;;5.00;3.00;;;;;20.27;60.44;101325.53;5071938;27;45279;-45
2022/10/02 09:46:18;;;;;;;;;5.00;1.50;;;;;20.30;60.24;101323.56;5100278;27;45576;-42
2022/10/02 09:49:02;;;;;;;;;5.50;2.00;;;;;20.34;60.24;101323.38;5100938;27;46929;-43
2022/10/02 09:51:52;;;;;;;;;1.50;1.00;;;;;20.33;60.09;101322.53;5101214;27;45342;-46
2022/10/02 09:54:42;;;;;;;;;2.75;1.75;;;;;20.37;59.88;101321.41;5101250;27;45241;-44
2022/10/02 09:57:45;;;;;;;;;2.25;1.75;;;;;20.39;60.22;101329.28;5098054;27;45350;-43
2022/10/02 10:00:15;;;;;;;;;2.00;1.50;;;;;20.42;59.98;101327.31;5100764;27;46222;-43
2022/10/02 10:02:53;;;;;;;;;2.50;1.00;;;;;20.46;60.25;101336.81;5079491;28;45707;-42
2022/10/02 10:05:47;;;;;;;;;1.00;1.00;;;;;20.51;60.00;101333.88;5092360;27;45401;-44
2022/10/02 10:08:40;;;;;;;;;2.00;1.50;;;;;20.57;59.67;101328.19;5085615;27;45224;-42
2022/10/02 10:11:17;;;;;;;;;1.25;1.25;;;;;20.63;59.83;101333.19;5084879;27;45442;-46
2022/10/02 10:14:01;;;;;;;;;1.00;1.00;;;;;20.70;59.56;101324.81;5105393;27;45177;-42
2022/10/02 10:16:29;;;;;;;;;2.00;2.00;;;;;20.72;59.63;101321.13;5094715;27;45452;-46
2022/10/02 10:19:47;;;;;;;;;5.50;4.00;;;;;20.77;59.00;101327.03;5100434;27;45312;-45
2022/10/02 10:22:34;;;;;;;;;8.00;4.25;;;;;20.83;58.81;101325.81;4996466;28;46236;-43
2022/10/02 10:25:15;;;;;;;;;3.00;2.00;;;;;20.87;58.87;101322.00;4997149;28;45361;-44
2022/10/02 10:28:17;;;;;;;;;4.50;4.25;;;;;20.93;59.37;101328.75;5057307;27;45582;-45
2022/10/02 10:31:01;;;;;;;;;2.00;2.00;;;;;20.99;59.21;101329.22;5090531;27;45330;-46
2022/10/02 10:33:32;;;;;;;;;7.00;5.75;;;;;21.07;59.14;101327.91;5070034;27;47456;-43
2022/10/02 10:39:56;;;;;;;;;5.75;4.50;;;;;21.29;58.78;101322.13;5095569;27;45331;-44
2022/10/02 10:42:48;;;;;;;;;6.50;4.00;;;;;21.42;58.29;101320.38;5100301;27;45376;-42
2022/10/02 10:45:44;;;;;;;;;7.25;5.00;;;;;21.50;58.27;101323.44;5079939;27;46225;-41
2022/10/02 10:48:29;;;;;;;;;3.75;2.00;;;;;21.55;57.71;101324.00;5067157;27;45503;-48
2022/10/02 10:51:29;;;;;;;;;2.50;2.00;;;;;21.61;57.47;101325.41;5087713;27;45484;-48
2022/10/02 10:54:13;;;;;;;;;2.50;1.00;;;;;21.65;57.07;101326.06;5083983;27;45454;-48
2022/10/02 10:57:03;;;;;;;;;2.00;1.25;;;;;21.66;57.19;101325.13;5076314;28;45268;-42
2022/10/02 10:59:52;;;;;;;;;3.00;3.00;;;;;21.64;57.09;101330.56;5074319;27;45506;-46
2022/10/02 11:02:43;;;;;;;;;1.75;1.00;;;;;21.58;57.25;101318.50;5095572;27;45281;-43
2022/10/02 11:05:38;;;;;;;;;4.50;4.25;;;;;21.54;57.18;101332.94;5079257;27;45495;-44
2022/10/02 11:08:31;;;;;;;;;23.00;21.75;;;;;21.48;56.52;101325.34;5077714;27;46056;-44
2022/10/02 11:11:02;;;;;;;;;15.50;14.75;;;;;21.43;56.51;101322.09;5097047;27;45455;-43
2022/10/02 11:14:01;;;;;;;;;24.50;20.75;;;;;21.38;56.97;101322.38;5062665;28;45487;-46
2022/10/02 11:16:59;;;;;;;;;22.25;19.25;;;;;21.35;56.86;101319.91;5099497;27;45334;-48
2022/10/02 11:19:27;;;;;;;;;5.50;5.50;;;;;21.36;56.44;101321.63;5099623;27;45418;-43
2022/10/02 11:22:06;;;;;;;;;7.50;5.25;;;;;21.36;56.17;101316.28;5094935;27;45418;-44
2022/10/02 11:24:41;;;;;;;;;7.75;4.00;;;;;21.37;56.54;101325.13;5065019;28;45665;-44
2022/10/02 11:27:32;;;;;;;;;4.50;3.00;;;;;21.35;55.99;101319.91;5085543;27;45552;-43
2022/10/02 11:30:23;;;;;;;;;5.75;5.75;;;;;21.34;55.95;101328.00;5086314;27;45600;-44
2022/10/02 11:33:07;;;;;;;;;13.00;10.25;;;;;21.30;56.32;101323.81;5061278;27;45798;-43
2022/10/02 11:35:59;;;;;;;;;18.00;17.50;;;;;21.27;56.14;101321.38;5071884;27;45441;-44
2022/10/02 11:38:31;;;;;;;;;12.75;9.75;;;;;21.28;56.22;101334.53;5070913;27;45253;-43
2022/10/02 11:41:09;;;;;;;;;5.25;4.75;;;;;21.25;56.20;101332.09;5095426;27;47027;-41
2022/10/02 11:44:00;;;;;;;;;2.50;2.25;;;;;21.20;56.18;101342.19;5091793;27;45438;-44
2022/10/02 11:46:59;;;;;;;;;5.75;3.75;;;;;21.15;56.12;101342.44;5085406;27;45327;-43
2022/10/02 11:49:34;;;;;;;;;2.75;2.75;;;;;21.12;56.35;101337.31;5099730;27;45454;-42
2022/10/02 11:51:59;;;;;;;;;3.50;3.25;;;;;21.10;56.60;101338.38;5103038;27;46212;-42
2022/10/02 11:54:44;;;;;;;;;8.00;6.25;;;;;21.08;57.44;101357.09;5099401;27;45430;-43
2022/10/02 11:57:22;;;;;;;;;1.75;1.00;;;;;21.02;58.60;101368.13;5092895;27;45476;-42
2022/10/02 12:00:04;;;;;;;;;1.25;1.00;;;;;20.93;59.89;101376.63;5092807;27;45508;-42
2022/10/02 12:02:58;;;;;;;;;4.00;1.25;;;;;20.77;59.57;101377.59;5079262;28;45307;-42
2022/10/02 12:06:18;;;;;;;;;1.00;1.00;;;;;20.64;60.69;101371.25;5080524;27;45586;-43
2022/10/02 12:09:06;;;;;;;;;4.00;2.00;;;;;20.58;61.47;101369.78;5019690;28;45557;-44
2022/10/02 12:11:41;;;;;;;;;4.25;2.75;;;;;20.57;61.59;101362.75;5097641;27;45356;-46
2022/10/02 12:14:10;;;;;;;;;2.00;2.00;;;;;20.56;61.79;101363.72;5061137;28;46279;-43
2022/10/02 12:16:48;;;;;;;;;3.50;3.25;;;;;20.57;61.74;101373.38;5077443;27;45331;-43
2022/10/02 12:19:16;;;;;;;;;3.50;3.25;;;;;20.58;62.17;101361.81;5101986;27;45431;-44
2022/10/02 12:28:09;;;;;;;;;7.00;5.25;;;;;20.65;62.07;101341.06;5086831;27;45405;-43
2022/10/02 12:30:53;;;;;;;;;4.25;3.00;;;;;20.67;61.89;101348.00;5075281;28;45515;-45
2022/10/02 12:33:31;;;;;;;;;4.50;4.50;;;;;20.70;62.14;101354.06;5085341;27;45395;-44